Galena, Nevada Weather observations

Data are for 60 minute period ending nearest time listed.
 Day   Time    Ave.   Ave.  Ave.  Vector   Max.   Total    Solar   
  of    of     Air    Rel.  Wind   Wind    Wind  Precip.   Rad.    
Year   Day     Temp.  Hum.  Speed  Dir.    Gust                    
2026   (PST)    F      %     mph   deg.    mph     in.     W/m2    
------------------------------------------------------------------- 
 248    0:00   46.0    66    5.0   344      9.0    2.02       0  
 248    1:00   50.0    62    4.0    54     11.0    2.02       0  
 248    2:00   47.0    69    6.0   356      9.0    2.02       0  
 248    3:00   46.0    70    3.0   311      9.0    2.02       0  
 248    4:00   44.0    72    2.0   275      6.0    2.02       0  
 248    5:00   44.0    70    4.0   311      7.0    2.02       0  
 248    6:00   46.0    70    2.0   320      4.0    2.02       8  
 248    7:00   53.0    58    5.0    35      9.0    2.02     153  
 248    8:00   56.0    55    7.0    53     12.0    2.02     355  
 248    9:00   56.0    53    2.0    57     12.0    2.02     430  
 248   10:00   64.0    38    8.0   155     14.0    2.02     765  
 248   11:00   65.0    35    9.0   160     17.0    2.02     720  
 248   12:00   68.0    31    9.0   215     22.0    2.02     794  
 248   13:00   69.0    27   12.0   228     30.0    2.02     867  
 248   14:00   69.0    25   14.0   230     26.0    2.02     807  
 248   15:00   69.0    26   13.0   234     30.0    2.02     700  
 248   16:00   68.0    26   16.0   231     35.0    2.02     553  
 248   17:00   65.0    30   17.0   209     33.0    2.02     371  
 248   18:00   62.0    37   15.0   239     30.0    2.02     110  
 248   19:00   60.0    38   14.0   236     27.0    2.02      15  
 248   20:00   58.0    43    4.0   223     30.0    2.02       0  
 248   21:00   59.0    40    7.0   218     22.0    2.02       0  
 248   22:00   56.0    46    5.0   206     13.0    2.02       0  
 248   23:00   57.0    41    9.0   222     18.0    2.02       0  

Return to Galena, Nevada graphs page.


Western Regional Climate Center,wrcc@dri.edu